sensor_id;sensor_type;location;lat;lon;timestamp;P1;durP1;ratioP1;P2;durP2;ratioP2
26034;SDS011;13809;48.632;11.576;2024-03-17T00:04:00;5.00;;;4.23;;
26034;SDS011;13809;48.632;11.576;2024-03-17T00:09:02;4.80;;;4.07;;
26034;SDS011;13809;48.632;11.576;2024-03-17T00:14:08;4.60;;;4.20;;
26034;SDS011;13809;48.632;11.576;2024-03-17T00:19:10;3.93;;;3.60;;
26034;SDS011;13809;48.632;11.576;2024-03-17T00:24:12;3.63;;;3.27;;
26034;SDS011;13809;48.632;11.576;2024-03-17T00:29:16;3.87;;;3.57;;
26034;SDS011;13809;48.632;11.576;2024-03-17T00:34:18;3.30;;;3.10;;
26034;SDS011;13809;48.632;11.576;2024-03-17T00:39:20;3.73;;;3.43;;
26034;SDS011;13809;48.632;11.576;2024-03-17T00:44:24;3.60;;;3.30;;
26034;SDS011;13809;48.632;11.576;2024-03-17T00:49:26;3.77;;;3.47;;
26034;SDS011;13809;48.632;11.576;2024-03-17T00:54:28;3.50;;;3.30;;
26034;SDS011;13809;48.632;11.576;2024-03-17T00:59:32;3.63;;;3.33;;
26034;SDS011;13809;48.632;11.576;2024-03-17T01:04:34;3.83;;;3.53;;
26034;SDS011;13809;48.632;11.576;2024-03-17T01:09:37;4.17;;;3.67;;
26034;SDS011;13809;48.632;11.576;2024-03-17T01:14:40;3.57;;;3.27;;
26034;SDS011;13809;48.632;11.576;2024-03-17T01:19:42;4.37;;;3.97;;
26034;SDS011;13809;48.632;11.576;2024-03-17T01:24:45;4.30;;;3.90;;
26034;SDS011;13809;48.632;11.576;2024-03-17T01:29:48;3.90;;;3.60;;
26034;SDS011;13809;48.632;11.576;2024-03-17T01:34:50;3.83;;;3.50;;
26034;SDS011;13809;48.632;11.576;2024-03-17T01:39:53;4.87;;;3.90;;
26034;SDS011;13809;48.632;11.576;2024-03-17T01:44:56;5.00;;;3.50;;
26034;SDS011;13809;48.632;11.576;2024-03-17T01:49:58;4.30;;;3.90;;
26034;SDS011;13809;48.632;11.576;2024-03-17T01:55:01;4.07;;;3.67;;
26034;SDS011;13809;48.632;11.576;2024-03-17T02:00:06;3.97;;;3.50;;
26034;SDS011;13809;48.632;11.576;2024-03-17T02:05:09;4.27;;;3.90;;
26034;SDS011;13809;48.632;11.576;2024-03-17T02:10:12;4.57;;;3.73;;
26034;SDS011;13809;48.632;11.576;2024-03-17T02:15:16;4.37;;;3.73;;
26034;SDS011;13809;48.632;11.576;2024-03-17T02:20:18;3.70;;;3.33;;
26034;SDS011;13809;48.632;11.576;2024-03-17T02:25:26;3.73;;;3.43;;
26034;SDS011;13809;48.632;11.576;2024-03-17T02:30:28;3.97;;;3.67;;
26034;SDS011;13809;48.632;11.576;2024-03-17T02:35:30;4.20;;;3.90;;
26034;SDS011;13809;48.632;11.576;2024-03-17T02:40:34;4.57;;;4.07;;
26034;SDS011;13809;48.632;11.576;2024-03-17T02:45:36;4.27;;;3.83;;
26034;SDS011;13809;48.632;11.576;2024-03-17T02:50:38;4.63;;;4.10;;
26034;SDS011;13809;48.632;11.576;2024-03-17T02:55:42;4.03;;;3.73;;
26034;SDS011;13809;48.632;11.576;2024-03-17T03:00:44;3.60;;;3.30;;
26034;SDS011;13809;48.632;11.576;2024-03-17T03:05:46;3.80;;;3.50;;
26034;SDS011;13809;48.632;11.576;2024-03-17T03:10:50;3.97;;;3.67;;
26034;SDS011;13809;48.632;11.576;2024-03-17T03:15:52;3.30;;;3.10;;
26034;SDS011;13809;48.632;11.576;2024-03-17T03:20:55;4.20;;;3.90;;
26034;SDS011;13809;48.632;11.576;2024-03-17T03:25:58;3.80;;;3.50;;
26034;SDS011;13809;48.632;11.576;2024-03-17T03:31:03;3.73;;;3.43;;
26034;SDS011;13809;48.632;11.576;2024-03-17T03:36:08;3.23;;;3.03;;
26034;SDS011;13809;48.632;11.576;2024-03-17T03:41:13;3.67;;;3.37;;
26034;SDS011;13809;48.632;11.576;2024-03-17T03:46:17;3.33;;;3.03;;
26034;SDS011;13809;48.632;11.576;2024-03-17T03:51:20;4.13;;;3.80;;
26034;SDS011;13809;48.632;11.576;2024-03-17T03:56:23;4.20;;;3.90;;
26034;SDS011;13809;48.632;11.576;2024-03-17T04:01:26;4.20;;;3.90;;
26034;SDS011;13809;48.632;11.576;2024-03-17T04:06:28;3.63;;;3.40;;
26034;SDS011;13809;48.632;11.576;2024-03-17T04:11:31;4.03;;;3.73;;
26034;SDS011;13809;48.632;11.576;2024-03-17T04:16:34;3.90;;;3.60;;
26034;SDS011;13809;48.632;11.576;2024-03-17T04:21:36;4.70;;;4.30;;
26034;SDS011;13809;48.632;11.576;2024-03-17T04:26:40;4.27;;;3.97;;
26034;SDS011;13809;48.632;11.576;2024-03-17T04:31:43;4.83;;;4.40;;
26034;SDS011;13809;48.632;11.576;2024-03-17T04:36:49;4.53;;;4.17;;
26034;SDS011;13809;48.632;11.576;2024-03-17T04:41:52;4.03;;;3.67;;
26034;SDS011;13809;48.632;11.576;2024-03-17T04:46:54;5.17;;;4.77;;
26034;SDS011;13809;48.632;11.576;2024-03-17T04:51:56;5.37;;;4.87;;
26034;SDS011;13809;48.632;11.576;2024-03-17T04:57:00;6.03;;;5.53;;
26034;SDS011;13809;48.632;11.576;2024-03-17T05:02:03;5.30;;;4.90;;
26034;SDS011;13809;48.632;11.576;2024-03-17T05:07:05;6.30;;;5.70;;
26034;SDS011;13809;48.632;11.576;2024-03-17T05:12:09;5.33;;;4.83;;
26034;SDS011;13809;48.632;11.576;2024-03-17T05:17:11;5.43;;;4.13;;
26034;SDS011;13809;48.632;11.576;2024-03-17T05:22:13;5.20;;;4.80;;
26034;SDS011;13809;48.632;11.576;2024-03-17T05:27:17;4.40;;;4.03;;
26034;SDS011;13809;48.632;11.576;2024-03-17T05:32:19;4.83;;;4.43;;
26034;SDS011;13809;48.632;11.576;2024-03-17T05:37:21;5.23;;;4.73;;
26034;SDS011;13809;48.632;11.576;2024-03-17T05:42:25;4.83;;;4.43;;
26034;SDS011;13809;48.632;11.576;2024-03-17T05:47:28;5.30;;;4.90;;
26034;SDS011;13809;48.632;11.576;2024-03-17T05:52:30;5.43;;;4.93;;
26034;SDS011;13809;48.632;11.576;2024-03-17T05:57:34;5.10;;;4.70;;
26034;SDS011;13809;48.632;11.576;2024-03-17T06:02:36;5.67;;;5.20;;
26034;SDS011;13809;48.632;11.576;2024-03-17T06:07:38;5.23;;;4.83;;
26034;SDS011;13809;48.632;11.576;2024-03-17T06:12:42;4.93;;;4.53;;
26034;SDS011;13809;48.632;11.576;2024-03-17T06:17:44;5.13;;;4.73;;
26034;SDS011;13809;48.632;11.576;2024-03-17T06:22:46;6.50;;;5.90;;
26034;SDS011;13809;48.632;11.576;2024-03-17T06:27:50;6.27;;;5.73;;
26034;SDS011;13809;48.632;11.576;2024-03-17T06:32:52;6.10;;;5.60;;
26034;SDS011;13809;48.632;11.576;2024-03-17T06:37:54;5.90;;;5.40;;
26034;SDS011;13809;48.632;11.576;2024-03-17T06:43:01;6.90;;;6.20;;
26034;SDS011;13809;48.632;11.576;2024-03-17T06:48:03;6.43;;;5.90;;
26034;SDS011;13809;48.632;11.576;2024-03-17T06:53:07;6.50;;;5.90;;
26034;SDS011;13809;48.632;11.576;2024-03-17T06:58:12;6.23;;;5.67;;
26034;SDS011;13809;48.632;11.576;2024-03-17T07:03:15;8.47;;;5.37;;
26034;SDS011;13809;48.632;11.576;2024-03-17T07:08:17;5.87;;;5.37;;
26034;SDS011;13809;48.632;11.576;2024-03-17T07:13:21;5.73;;;5.23;;
26034;SDS011;13809;48.632;11.576;2024-03-17T07:18:24;5.37;;;4.90;;
26034;SDS011;13809;48.632;11.576;2024-03-17T07:23:27;5.67;;;5.17;;
26034;SDS011;13809;48.632;11.576;2024-03-17T07:28:30;5.90;;;5.40;;
26034;SDS011;13809;48.632;11.576;2024-03-17T07:33:33;5.83;;;5.33;;
26034;SDS011;13809;48.632;11.576;2024-03-17T07:38:35;6.70;;;6.10;;
26034;SDS011;13809;48.632;11.576;2024-03-17T07:43:39;6.97;;;6.37;;
26034;SDS011;13809;48.632;11.576;2024-03-17T07:48:42;7.80;;;7.10;;
26034;SDS011;13809;48.632;11.576;2024-03-17T07:53:45;8.30;;;7.50;;
26034;SDS011;13809;48.632;11.576;2024-03-17T07:58:50;7.83;;;7.13;;
26034;SDS011;13809;48.632;11.576;2024-03-17T08:03:52;8.40;;;7.60;;
26034;SDS011;13809;48.632;11.576;2024-03-17T08:08:57;8.70;;;7.80;;
26034;SDS011;13809;48.632;11.576;2024-03-17T08:14:00;9.07;;;8.10;;
26034;SDS011;13809;48.632;11.576;2024-03-17T08:19:03;8.33;;;7.53;;
26034;SDS011;13809;48.632;11.576;2024-03-17T08:24:07;9.57;;;8.43;;
26034;SDS011;13809;48.632;11.576;2024-03-17T08:29:10;8.60;;;7.73;;
26034;SDS011;13809;48.632;11.576;2024-03-17T08:34:13;9.00;;;8.10;;
26034;SDS011;13809;48.632;11.576;2024-03-17T08:39:15;8.80;;;8.00;;
26034;SDS011;13809;48.632;11.576;2024-03-17T08:44:18;8.57;;;7.77;;
26034;SDS011;13809;48.632;11.576;2024-03-17T08:49:21;8.47;;;7.67;;
26034;SDS011;13809;48.632;11.576;2024-03-17T08:54:23;8.70;;;7.87;;
26034;SDS011;13809;48.632;11.576;2024-03-17T08:59:27;8.13;;;7.43;;
26034;SDS011;13809;48.632;11.576;2024-03-17T09:04:30;8.47;;;7.73;;
26034;SDS011;13809;48.632;11.576;2024-03-17T09:09:32;8.53;;;7.77;;
26034;SDS011;13809;48.632;11.576;2024-03-17T09:14:36;8.73;;;7.87;;
26034;SDS011;13809;48.632;11.576;2024-03-17T09:19:38;7.83;;;7.23;;
26034;SDS011;13809;48.632;11.576;2024-03-17T09:24:41;7.90;;;7.20;;
26034;SDS011;13809;48.632;11.576;2024-03-17T09:29:46;8.20;;;7.50;;
26034;SDS011;13809;48.632;11.576;2024-03-17T09:34:49;8.47;;;7.67;;
26034;SDS011;13809;48.632;11.576;2024-03-17T09:39:51;7.13;;;6.53;;
26034;SDS011;13809;48.632;11.576;2024-03-17T09:44:55;7.27;;;6.57;;
26034;SDS011;13809;48.632;11.576;2024-03-17T09:49:57;7.70;;;6.97;;
26034;SDS011;13809;48.632;11.576;2024-03-17T09:55:00;7.20;;;6.60;;
26034;SDS011;13809;48.632;11.576;2024-03-17T10:00:11;6.70;;;6.20;;
26034;SDS011;13809;48.632;11.576;2024-03-17T10:05:20;8.03;;;6.43;;
26034;SDS011;13809;48.632;11.576;2024-03-17T10:10:23;6.30;;;5.63;;
26034;SDS011;13809;48.632;11.576;2024-03-17T10:15:26;7.20;;;6.50;;
26034;SDS011;13809;48.632;11.576;2024-03-17T10:20:30;5.73;;;5.23;;
26034;SDS011;13809;48.632;11.576;2024-03-17T10:25:32;6.53;;;5.20;;
26034;SDS011;13809;48.632;11.576;2024-03-17T10:30:38;4.40;;;4.03;;
26034;SDS011;13809;48.632;11.576;2024-03-17T10:35:41;4.73;;;4.30;;
26034;SDS011;13809;48.632;11.576;2024-03-17T10:40:43;5.03;;;4.63;;
26034;SDS011;13809;48.632;11.576;2024-03-17T10:45:47;5.00;;;4.43;;
26034;SDS011;13809;48.632;11.576;2024-03-17T10:50:49;4.93;;;4.10;;
26034;SDS011;13809;48.632;11.576;2024-03-17T10:55:56;5.30;;;4.80;;
26034;SDS011;13809;48.632;11.576;2024-03-17T11:01:07;5.10;;;4.60;;
26034;SDS011;13809;48.632;11.576;2024-03-17T11:06:14;5.03;;;4.53;;
26034;SDS011;13809;48.632;11.576;2024-03-17T11:16:41;5.07;;;4.57;;
26034;SDS011;13809;48.632;11.576;2024-03-17T11:21:43;4.63;;;4.33;;
26034;SDS011;13809;48.632;11.576;2024-03-17T11:26:46;4.83;;;4.43;;
26034;SDS011;13809;48.632;11.576;2024-03-17T11:31:49;5.10;;;4.70;;
26034;SDS011;13809;48.632;11.576;2024-03-17T11:36:56;5.00;;;4.60;;
26034;SDS011;13809;48.632;11.576;2024-03-17T11:42:04;4.37;;;4.07;;
26034;SDS011;13809;48.632;11.576;2024-03-17T11:47:14;3.93;;;3.63;;
26034;SDS011;13809;48.632;11.576;2024-03-17T11:52:17;4.70;;;4.30;;
26034;SDS011;13809;48.632;11.576;2024-03-17T11:57:21;3.50;;;3.20;;
26034;SDS011;13809;48.632;11.576;2024-03-17T12:02:26;3.50;;;3.20;;
26034;SDS011;13809;48.632;11.576;2024-03-17T12:07:31;3.90;;;3.60;;
26034;SDS011;13809;48.632;11.576;2024-03-17T12:12:34;3.77;;;3.27;;
26034;SDS011;13809;48.632;11.576;2024-03-17T12:17:37;3.53;;;3.30;;
26034;SDS011;13809;48.632;11.576;2024-03-17T12:22:40;4.10;;;3.70;;
26034;SDS011;13809;48.632;11.576;2024-03-17T12:27:43;3.83;;;3.53;;
26034;SDS011;13809;48.632;11.576;2024-03-17T12:32:47;3.40;;;3.10;;
26034;SDS011;13809;48.632;11.576;2024-03-17T12:37:50;4.10;;;3.70;;
26034;SDS011;13809;48.632;11.576;2024-03-17T12:42:52;3.23;;;2.93;;
26034;SDS011;13809;48.632;11.576;2024-03-17T12:47:56;3.90;;;3.37;;
26034;SDS011;13809;48.632;11.576;2024-03-17T12:52:59;3.27;;;2.97;;
26034;SDS011;13809;48.632;11.576;2024-03-17T12:58:07;3.13;;;2.83;;
26034;SDS011;13809;48.632;11.576;2024-03-17T13:03:30;2.90;;;2.70;;
26034;SDS011;13809;48.632;11.576;2024-03-17T13:08:34;3.60;;;3.30;;
26034;SDS011;13809;48.632;11.576;2024-03-17T13:13:36;3.60;;;3.30;;
26034;SDS011;13809;48.632;11.576;2024-03-17T13:18:40;3.60;;;3.20;;
26034;SDS011;13809;48.632;11.576;2024-03-17T13:23:43;3.60;;;3.30;;
26034;SDS011;13809;48.632;11.576;2024-03-17T13:28:46;5.33;;;3.30;;
26034;SDS011;13809;48.632;11.576;2024-03-17T13:33:49;3.30;;;3.00;;
26034;SDS011;13809;48.632;11.576;2024-03-17T13:38:52;3.60;;;3.03;;
26034;SDS011;13809;48.632;11.576;2024-03-17T13:43:54;3.03;;;2.73;;
26034;SDS011;13809;48.632;11.576;2024-03-17T13:48:59;3.30;;;2.97;;
26034;SDS011;13809;48.632;11.576;2024-03-17T13:54:08;4.47;;;3.37;;
26034;SDS011;13809;48.632;11.576;2024-03-17T13:59:11;2.97;;;2.73;;
26034;SDS011;13809;48.632;11.576;2024-03-17T14:04:15;2.93;;;2.73;;
26034;SDS011;13809;48.632;11.576;2024-03-17T14:09:19;3.60;;;2.60;;
26034;SDS011;13809;48.632;11.576;2024-03-17T14:14:23;3.10;;;2.80;;
26034;SDS011;13809;48.632;11.576;2024-03-17T14:19:26;2.60;;;2.40;;
26034;SDS011;13809;48.632;11.576;2024-03-17T14:24:29;3.13;;;2.83;;
26034;SDS011;13809;48.632;11.576;2024-03-17T14:29:31;2.53;;;2.33;;
26034;SDS011;13809;48.632;11.576;2024-03-17T14:34:34;2.70;;;2.50;;
26034;SDS011;13809;48.632;11.576;2024-03-17T14:39:38;3.63;;;2.57;;
26034;SDS011;13809;48.632;11.576;2024-03-17T14:44:40;3.03;;;2.83;;
26034;SDS011;13809;48.632;11.576;2024-03-17T14:49:44;2.90;;;2.53;;
26034;SDS011;13809;48.632;11.576;2024-03-17T14:54:47;3.37;;;2.40;;
26034;SDS011;13809;48.632;11.576;2024-03-17T14:59:51;3.50;;;3.20;;
26034;SDS011;13809;48.632;11.576;2024-03-17T15:04:55;4.17;;;3.10;;
26034;SDS011;13809;48.632;11.576;2024-03-17T15:09:57;2.60;;;2.40;;
26034;SDS011;13809;48.632;11.576;2024-03-17T15:15:00;2.67;;;2.20;;
26034;SDS011;13809;48.632;11.576;2024-03-17T15:20:04;2.83;;;2.60;;
26034;SDS011;13809;48.632;11.576;2024-03-17T15:25:16;3.37;;;3.07;;
26034;SDS011;13809;48.632;11.576;2024-03-17T15:30:20;2.50;;;2.30;;
26034;SDS011;13809;48.632;11.576;2024-03-17T15:35:27;2.23;;;2.03;;
26034;SDS011;13809;48.632;11.576;2024-03-17T15:40:31;2.67;;;2.10;;
26034;SDS011;13809;48.632;11.576;2024-03-17T15:45:34;1.90;;;1.80;;
26034;SDS011;13809;48.632;11.576;2024-03-17T15:50:39;1.90;;;1.67;;
26034;SDS011;13809;48.632;11.576;2024-03-17T15:55:43;2.10;;;2.00;;
26034;SDS011;13809;48.632;11.576;2024-03-17T16:00:45;3.33;;;2.47;;
26034;SDS011;13809;48.632;11.576;2024-03-17T16:05:49;2.27;;;2.07;;
26034;SDS011;13809;48.632;11.576;2024-03-17T16:10:55;2.90;;;2.30;;
26034;SDS011;13809;48.632;11.576;2024-03-17T16:15:59;2.40;;;2.20;;
26034;SDS011;13809;48.632;11.576;2024-03-17T16:21:05;2.40;;;2.20;;
26034;SDS011;13809;48.632;11.576;2024-03-17T16:26:09;3.60;;;2.70;;
26034;SDS011;13809;48.632;11.576;2024-03-17T16:31:14;3.10;;;2.10;;
26034;SDS011;13809;48.632;11.576;2024-03-17T16:36:17;3.20;;;2.80;;
26034;SDS011;13809;48.632;11.576;2024-03-17T16:41:20;2.83;;;2.53;;
26034;SDS011;13809;48.632;11.576;2024-03-17T16:46:35;3.17;;;2.80;;
26034;SDS011;13809;48.632;11.576;2024-03-17T16:52:01;3.53;;;3.23;;
26034;SDS011;13809;48.632;11.576;2024-03-17T16:57:03;7.53;;;3.07;;
26034;SDS011;13809;48.632;11.576;2024-03-17T17:02:06;4.33;;;2.70;;
26034;SDS011;13809;48.632;11.576;2024-03-17T17:07:16;4.43;;;2.60;;
26034;SDS011;13809;48.632;11.576;2024-03-17T17:12:18;4.20;;;2.37;;
26034;SDS011;13809;48.632;11.576;2024-03-17T17:17:20;3.13;;;2.20;;
26034;SDS011;13809;48.632;11.576;2024-03-17T17:22:24;2.77;;;2.30;;
26034;SDS011;13809;48.632;11.576;2024-03-17T17:27:26;3.30;;;2.30;;
26034;SDS011;13809;48.632;11.576;2024-03-17T17:32:30;3.10;;;2.90;;
26034;SDS011;13809;48.632;11.576;2024-03-17T17:37:35;4.70;;;3.60;;
26034;SDS011;13809;48.632;11.576;2024-03-17T17:42:38;2.77;;;2.57;;
26034;SDS011;13809;48.632;11.576;2024-03-17T17:47:41;2.63;;;2.10;;
26034;SDS011;13809;48.632;11.576;2024-03-17T17:52:44;3.00;;;2.30;;
26034;SDS011;13809;48.632;11.576;2024-03-17T17:57:47;5.90;;;2.07;;
26034;SDS011;13809;48.632;11.576;2024-03-17T18:02:49;3.00;;;1.80;;
26034;SDS011;13809;48.632;11.576;2024-03-17T18:07:52;2.23;;;1.67;;
26034;SDS011;13809;48.632;11.576;2024-03-17T18:12:55;2.53;;;1.77;;
26034;SDS011;13809;48.632;11.576;2024-03-17T18:17:57;1.60;;;1.50;;
26034;SDS011;13809;48.632;11.576;2024-03-17T18:23:01;1.60;;;1.40;;
26034;SDS011;13809;48.632;11.576;2024-03-17T18:28:04;1.80;;;1.70;;
26034;SDS011;13809;48.632;11.576;2024-03-17T18:33:06;3.07;;;1.60;;
26034;SDS011;13809;48.632;11.576;2024-03-17T18:38:11;2.17;;;1.50;;
26034;SDS011;13809;48.632;11.576;2024-03-17T18:43:14;1.50;;;1.40;;
26034;SDS011;13809;48.632;11.576;2024-03-17T18:48:17;3.63;;;1.80;;
26034;SDS011;13809;48.632;11.576;2024-03-17T18:53:21;1.77;;;1.67;;
26034;SDS011;13809;48.632;11.576;2024-03-17T18:58:23;1.80;;;1.70;;
26034;SDS011;13809;48.632;11.576;2024-03-17T19:03:26;2.50;;;2.10;;
26034;SDS011;13809;48.632;11.576;2024-03-17T19:08:30;1.83;;;1.73;;
26034;SDS011;13809;48.632;11.576;2024-03-17T19:13:32;3.17;;;2.80;;
26034;SDS011;13809;48.632;11.576;2024-03-17T19:18:36;2.47;;;2.27;;
26034;SDS011;13809;48.632;11.576;2024-03-17T19:23:41;2.90;;;2.70;;
26034;SDS011;13809;48.632;11.576;2024-03-17T19:28:44;3.97;;;2.87;;
26034;SDS011;13809;48.632;11.576;2024-03-17T19:33:47;3.20;;;2.90;;
26034;SDS011;13809;48.632;11.576;2024-03-17T19:38:52;3.40;;;3.10;;
26034;SDS011;13809;48.632;11.576;2024-03-17T19:43:55;3.17;;;2.90;;
26034;SDS011;13809;48.632;11.576;2024-03-17T19:48:58;3.63;;;3.27;;
26034;SDS011;13809;48.632;11.576;2024-03-17T19:54:02;3.53;;;3.07;;
26034;SDS011;13809;48.632;11.576;2024-03-17T19:59:06;3.83;;;3.47;;
26034;SDS011;13809;48.632;11.576;2024-03-17T20:04:08;7.03;;;4.30;;
26034;SDS011;13809;48.632;11.576;2024-03-17T20:09:12;5.93;;;5.07;;
26034;SDS011;13809;48.632;11.576;2024-03-17T20:14:14;10.27;;;7.50;;
26034;SDS011;13809;48.632;11.576;2024-03-17T20:19:17;7.37;;;6.57;;
26034;SDS011;13809;48.632;11.576;2024-03-17T20:24:22;5.97;;;5.37;;
26034;SDS011;13809;48.632;11.576;2024-03-17T20:29:24;5.30;;;4.80;;
26034;SDS011;13809;48.632;11.576;2024-03-17T20:34:27;7.63;;;5.80;;
26034;SDS011;13809;48.632;11.576;2024-03-17T20:39:30;5.57;;;5.00;;
26034;SDS011;13809;48.632;11.576;2024-03-17T20:44:32;5.23;;;4.73;;
26034;SDS011;13809;48.632;11.576;2024-03-17T20:49:35;5.23;;;4.73;;
26034;SDS011;13809;48.632;11.576;2024-03-17T20:54:38;5.07;;;4.57;;
26034;SDS011;13809;48.632;11.576;2024-03-17T20:59:40;4.60;;;4.20;;
26034;SDS011;13809;48.632;11.576;2024-03-17T21:04:43;6.87;;;4.30;;
26034;SDS011;13809;48.632;11.576;2024-03-17T21:09:46;5.77;;;4.00;;
26034;SDS011;13809;48.632;11.576;2024-03-17T21:14:51;4.63;;;4.23;;
26034;SDS011;13809;48.632;11.576;2024-03-17T21:19:53;5.63;;;5.13;;
26034;SDS011;13809;48.632;11.576;2024-03-17T21:24:56;5.90;;;5.40;;
26034;SDS011;13809;48.632;11.576;2024-03-17T21:29:59;8.33;;;6.73;;
26034;SDS011;13809;48.632;11.576;2024-03-17T21:35:01;7.30;;;5.50;;
26034;SDS011;13809;48.632;11.576;2024-03-17T21:40:05;7.57;;;6.77;;
26034;SDS011;13809;48.632;11.576;2024-03-17T21:45:12;6.53;;;5.57;;
26034;SDS011;13809;48.632;11.576;2024-03-17T21:50:14;6.50;;;5.80;;
26034;SDS011;13809;48.632;11.576;2024-03-17T21:55:19;6.07;;;5.13;;
26034;SDS011;13809;48.632;11.576;2024-03-17T22:00:22;7.83;;;5.30;;
26034;SDS011;13809;48.632;11.576;2024-03-17T22:05:29;5.60;;;5.10;;
26034;SDS011;13809;48.632;11.576;2024-03-17T22:10:33;7.50;;;5.67;;
26034;SDS011;13809;48.632;11.576;2024-03-17T22:15:35;6.57;;;5.83;;
26034;SDS011;13809;48.632;11.576;2024-03-17T22:20:38;7.57;;;6.37;;
26034;SDS011;13809;48.632;11.576;2024-03-17T22:25:41;6.60;;;5.93;;
26034;SDS011;13809;48.632;11.576;2024-03-17T22:30:48;6.93;;;6.23;;
26034;SDS011;13809;48.632;11.576;2024-03-17T22:35:55;6.70;;;6.10;;
26034;SDS011;13809;48.632;11.576;2024-03-17T22:41:00;5.73;;;5.23;;
26034;SDS011;13809;48.632;11.576;2024-03-17T22:46:04;5.97;;;5.33;;
26034;SDS011;13809;48.632;11.576;2024-03-17T22:51:07;6.40;;;5.80;;
26034;SDS011;13809;48.632;11.576;2024-03-17T22:56:12;5.10;;;4.70;;
26034;SDS011;13809;48.632;11.576;2024-03-17T23:01:14;6.33;;;5.73;;
26034;SDS011;13809;48.632;11.576;2024-03-17T23:06:16;5.30;;;4.80;;
26034;SDS011;13809;48.632;11.576;2024-03-17T23:11:20;7.07;;;6.17;;
26034;SDS011;13809;48.632;11.576;2024-03-17T23:16:23;14.27;;;8.93;;
26034;SDS011;13809;48.632;11.576;2024-03-17T23:21:25;11.07;;;7.57;;
26034;SDS011;13809;48.632;11.576;2024-03-17T23:26:29;7.60;;;6.60;;
26034;SDS011;13809;48.632;11.576;2024-03-17T23:31:31;8.03;;;5.73;;
26034;SDS011;13809;48.632;11.576;2024-03-17T23:36:34;5.53;;;4.70;;
26034;SDS011;13809;48.632;11.576;2024-03-17T23:41:38;5.77;;;4.90;;
26034;SDS011;13809;48.632;11.576;2024-03-17T23:46:40;8.40;;;5.93;;
26034;SDS011;13809;48.632;11.576;2024-03-17T23:51:43;10.83;;;6.63;;
26034;SDS011;13809;48.632;11.576;2024-03-17T23:56:47;10.40;;;6.70;;
